Time;durP1;ratioP1;P1;durP2;ratioP2;P2;SDS_P1;SDS_P2;PMS_P1;PMS_P2;Temp;Humidity;BMP_temperature;BMP_pressure;BME280_temperature;BME280_humidity;BME280_pressure;Samples;Min_cycle;Max_cycle;Signal;HPM_P1;HPM_P2
2022/05/09 00:01:02;;;;;;;7.30;6.60;;;;;;;12.24;85.84;98387.91;6252613;28;20706;-68
2022/05/09 00:04:04;;;;;;;9.00;7.63;;;;;;;12.22;86.05;98383.69;6218222;28;20244;-68
2022/05/09 00:07:07;;;;;;;7.20;6.50;;;;;;;12.17;86.02;98378.75;6224563;28;20216;-68
2022/05/09 00:10:11;;;;;;;7.77;7.07;;;;;;;12.14;86.31;98382.47;6228489;28;20227;-68
2022/05/09 00:13:13;;;;;;;8.00;7.20;;;;;;;12.11;86.29;98385.31;6230260;28;20235;-68
2022/05/09 00:16:15;;;;;;;7.17;6.57;;;;;;;12.08;86.30;98385.56;6233126;28;20239;-68
2022/05/09 00:19:20;;;;;;;7.20;6.30;;;;;;;12.06;86.37;98384.84;6232367;28;20239;-68
2022/05/09 00:22:23;;;;;;;7.67;7.03;;;;;;;12.03;86.22;98378.94;6231819;28;20612;-68
2022/05/09 00:25:27;;;;;;;8.57;7.67;;;;;;;12.00;86.28;98372.06;6232475;28;20759;-68
2022/05/09 00:28:29;;;;;;;7.60;7.00;;;;;;;11.97;86.49;98382.03;6215024;28;20230;-68
2022/05/09 00:31:32;;;;;;;8.17;7.37;;;;;;;11.98;86.70;98376.63;6232465;28;20229;-68
2022/05/09 00:34:37;;;;;;;8.60;7.77;;;;;;;11.95;86.64;98379.50;6232785;28;20234;-68
2022/05/09 00:37:39;;;;;;;8.43;7.53;;;;;;;11.90;86.50;98383.44;6231715;28;20229;-69
2022/05/09 00:41:28;;;;;;;8.33;7.57;;;;;;;11.86;86.85;98382.84;6231962;28;20231;-69
2022/05/09 00:44:16;;;;;;;8.43;7.73;;;;;;;11.82;86.70;98376.09;6231467;28;20224;-69
2022/05/09 00:47:20;;;;;;;9.03;7.87;;;;;;;11.81;86.84;98379.69;6207414;28;20228;-69
2022/05/09 00:50:29;;;;;;;8.63;7.83;;;;;;;11.80;87.02;98385.94;6205850;28;20228;-68
2022/05/09 00:53:33;;;;;;;8.33;7.60;;;;;;;11.75;86.78;98381.00;6214417;28;20224;-68
2022/05/09 00:56:44;;;;;;;8.97;8.07;;;;;;;11.69;87.20;98386.69;6231910;28;20219;-68
2022/05/09 00:59:49;;;;;;;9.50;8.20;;;;;;;11.63;87.25;98384.50;6231779;28;20585;-68
2022/05/09 01:02:59;;;;;;;9.40;8.37;;;;;;;11.58;87.43;98388.44;6213854;28;20245;-68
2022/05/09 01:06:01;;;;;;;8.43;7.70;;;;;;;11.56;87.41;98387.72;6255824;28;20229;-68
2022/05/09 01:09:05;;;;;;;8.03;7.23;;;;;;;11.53;87.55;98382.63;6256113;28;20255;-68
2022/05/09 01:12:10;;;;;;;8.67;7.87;;;;;;;11.54;87.59;98393.09;6255907;28;20225;-68
2022/05/09 01:15:16;;;;;;;8.43;7.67;;;;;;;11.51;87.39;98398.59;6254907;28;20594;-68
2022/05/09 01:18:18;;;;;;;8.23;7.37;;;;;;;11.48;87.58;98387.44;6255221;28;20313;-68
2022/05/09 01:21:31;;;;;;;8.93;8.13;;;;;;;11.47;87.38;98391.88;6254082;28;20252;-68
2022/05/09 01:24:33;;;;;;;8.53;7.73;;;;;;;11.46;87.70;98388.38;6258870;28;20230;-68
2022/05/09 01:27:40;;;;;;;8.90;8.10;;;;;;;11.45;87.69;98389.34;6254364;28;20261;-68
2022/05/09 01:30:57;;;;;;;9.73;8.40;;;;;;;11.45;87.42;98389.34;6237181;28;20231;-68
2022/05/09 01:34:01;;;;;;;10.47;8.47;;;;;;;11.42;87.51;98391.34;6255122;28;20238;-68
2022/05/09 01:37:07;;;;;;;9.03;8.23;;;;;;;11.40;87.42;98391.44;6255562;28;20227;-68
2022/05/09 01:40:10;;;;;;;8.20;7.50;;;;;;;11.41;87.59;98392.28;6255700;28;20238;-68
2022/05/09 01:43:12;;;;;;;9.40;7.80;;;;;;;11.41;87.45;98397.59;6254839;28;20710;-68
2022/05/09 01:46:20;;;;;;;8.03;7.13;;;;;;;11.43;87.63;98398.31;6254860;28;20242;-68
2022/05/09 01:49:31;;;;;;;10.73;8.03;;;;;;;11.45;87.92;98393.78;6255845;28;20325;-68
2022/05/09 01:52:33;;;;;;;8.30;7.60;;;;;;;11.47;87.73;98397.16;6253064;28;20260;-68
2022/05/09 01:55:35;;;;;;;8.40;7.70;;;;;;;11.49;87.88;98395.22;6254363;28;20234;-68
2022/05/09 01:58:37;;;;;;;8.33;7.50;;;;;;;11.50;87.69;98401.34;6254091;28;20229;-68
2022/05/09 03:05:08;;;;;;;8.90;8.00;;;;;;;11.19;88.68;98405.34;6217600;28;20238;-68
2022/05/09 03:08:11;;;;;;;8.80;7.93;;;;;;;11.15;89.25;98414.47;6229745;28;20230;-68
2022/05/09 03:11:13;;;;;;;10.67;8.67;;;;;;;11.13;88.51;98411.94;6210953;28;20230;-68
2022/05/09 03:14:15;;;;;;;9.37;8.47;;;;;;;11.14;88.78;98415.41;6228528;28;20253;-68
2022/05/09 03:17:17;;;;;;;8.00;7.30;;;;;;;11.13;88.59;98414.56;6229079;28;20279;-68
2022/05/09 03:20:20;;;;;;;8.80;8.00;;;;;;;11.13;88.80;98416.38;6211231;28;20609;-68
2022/05/09 03:23:22;;;;;;;8.30;7.50;;;;;;;11.12;88.66;98417.31;6227897;28;20368;-68
2022/05/09 03:26:24;;;;;;;9.20;8.40;;;;;;;11.11;88.85;98424.41;6229109;28;20235;-68
2022/05/09 03:29:28;;;;;;;8.67;7.83;;;;;;;11.13;88.82;98427.78;6228673;28;20710;-68
2022/05/09 03:32:29;;;;;;;10.83;9.27;;;;;;;11.15;89.06;98430.31;6225985;28;20221;-68
2022/05/09 03:35:32;;;;;;;10.27;9.13;;;;;;;11.15;88.94;98431.16;6228472;28;20234;-68
2022/05/09 03:38:34;;;;;;;8.83;8.13;;;;;;;11.16;88.70;98435.50;6228478;28;20576;-68
2022/05/09 03:41:36;;;;;;;10.57;8.57;;;;;;;11.17;88.78;98428.41;6210182;28;20714;-68
2022/05/09 03:44:38;;;;;;;8.83;7.93;;;;;;;11.19;88.73;98437.06;6229470;28;20569;-68
2022/05/09 03:47:42;;;;;;;9.03;8.13;;;;;;;11.16;88.80;98434.66;6214080;28;20237;-68
2022/05/09 03:50:46;;;;;;;10.73;8.17;;;;;;;11.19;88.73;98431.78;6232402;28;20272;-69
2022/05/09 03:53:48;;;;;;;9.47;8.67;;;;;;;11.19;88.77;98450.25;6234077;28;20601;-68
2022/05/09 03:56:50;;;;;;;8.40;7.70;;;;;;;11.18;88.78;98448.59;6233015;28;20234;-69
2022/05/09 03:59:52;;;;;;;8.80;7.90;;;;;;;11.21;88.68;98446.56;6232033;28;20624;-69
2022/05/09 04:02:54;;;;;;;8.80;8.00;;;;;;;11.24;88.77;98446.38;6216756;28;20693;-68
2022/05/09 04:05:58;;;;;;;9.50;8.50;;;;;;;11.26;88.74;98452.38;6243034;28;20236;-68
2022/05/09 04:08:59;;;;;;;10.17;9.20;;;;;;;11.28;88.57;98449.66;6261895;28;20230;-68
2022/05/09 04:12:02;;;;;;;8.50;7.70;;;;;;;11.30;88.66;98455.63;6241551;28;20238;-68
2022/05/09 04:18:26;;;;;;;9.13;8.33;;;;;;;11.42;88.96;98457.41;6256042;28;20739;-68
2022/05/09 04:21:28;;;;;;;8.53;7.83;;;;;;;11.45;88.54;98452.78;6257346;28;20603;-67
2022/05/09 04:24:30;;;;;;;9.13;8.23;;;;;;;11.51;88.30;98456.75;6239139;28;20232;-67
2022/05/09 04:27:33;;;;;;;9.53;8.73;;;;;;;11.59;88.18;98466.78;6256265;28;20718;-67
2022/05/09 04:30:38;;;;;;;10.07;9.10;;;;;;;11.66;88.37;98468.88;6255939;28;20727;-67
2022/05/09 04:33:41;;;;;;;10.73;9.73;;;;;;;11.75;88.05;98465.63;6256161;28;20523;-67
2022/05/09 04:36:43;;;;;;;10.07;9.13;;;;;;;11.80;87.59;98470.56;6257729;28;20266;-67
2022/05/09 04:39:45;;;;;;;10.27;9.37;;;;;;;11.88;87.75;98473.47;6255756;28;20234;-67
2022/05/09 04:42:47;;;;;;;9.87;8.97;;;;;;;11.97;87.78;98472.84;6256406;28;20238;-67
2022/05/09 04:45:50;;;;;;;10.43;9.47;;;;;;;12.06;87.46;98472.16;6256196;28;20236;-67
2022/05/09 04:48:53;;;;;;;8.90;8.10;;;;;;;12.12;87.10;98482.28;6257311;28;20325;-67
2022/05/09 04:51:55;;;;;;;9.40;8.50;;;;;;;12.17;87.39;98488.09;6256242;28;20303;-67
2022/05/09 04:54:57;;;;;;;10.13;9.23;;;;;;;12.22;87.16;98478.94;6238694;28;20333;-68
2022/05/09 04:57:59;;;;;;;9.60;8.63;;;;;;;12.27;87.04;98474.16;6236113;28;20249;-69
2022/05/09 05:01:01;;;;;;;10.80;9.70;;;;;;;12.37;87.06;98483.13;6255462;28;20724;-67
2022/05/09 05:04:05;;;;;;;10.67;9.73;;;;;;;12.46;86.96;98483.28;6236712;28;20319;-69
2022/05/09 05:07:08;;;;;;;9.83;8.93;;;;;;;12.58;87.01;98484.97;6229969;28;20279;-69
2022/05/09 05:10:11;;;;;;;10.30;9.40;;;;;;;12.73;86.31;98482.97;6230921;28;20234;-67
2022/05/09 05:13:13;;;;;;;9.43;8.63;;;;;;;12.88;86.23;98484.44;6231051;28;20715;-67
2022/05/09 05:16:15;;;;;;;9.63;8.67;;;;;;;13.03;85.79;98485.06;6230376;28;20336;-69
2022/05/09 05:19:18;;;;;;;8.97;8.10;;;;;;;13.16;85.67;98485.84;6231011;28;20231;-69
2022/05/09 05:22:19;;;;;;;9.00;8.03;;;;;;;13.28;85.49;98486.69;6230303;28;20235;-69
2022/05/09 05:25:25;;;;;;;9.07;8.23;;;;;;;13.38;84.88;98487.63;6231118;28;20224;-69
2022/05/09 05:28:27;;;;;;;8.50;7.70;;;;;;;13.50;84.75;98489.34;6212715;28;20227;-69
2022/05/09 05:31:29;;;;;;;9.60;8.60;;;;;;;13.61;84.67;98493.78;6213432;28;20270;-69
2022/05/09 05:34:35;;;;;;;8.30;7.50;;;;;;;13.71;84.30;98494.75;6205202;28;20236;-69
2022/05/09 05:37:41;;;;;;;8.47;7.67;;;;;;;13.80;84.08;98490.50;6227209;28;20383;-68
2022/05/09 05:40:43;;;;;;;10.23;7.53;;;;;;;13.90;83.28;98502.06;6212848;28;20265;-68
2022/05/09 05:43:49;;;;;;;8.53;7.73;;;;;;;14.00;83.21;98497.69;6235401;28;20286;-68
2022/05/09 05:46:51;;;;;;;8.93;8.03;;;;;;;14.07;83.02;98501.56;6231160;28;20373;-69
2022/05/09 05:49:53;;;;;;;8.73;7.83;;;;;;;14.11;82.85;98500.31;6230503;28;20261;-69
2022/05/09 05:52:58;;;;;;;8.97;8.17;;;;;;;14.16;82.80;98499.97;6230410;28;20259;-69
2022/05/09 05:56:01;;;;;;;8.97;8.13;;;;;;;14.18;82.08;98508.63;6229482;28;20258;-68
2022/05/09 05:59:04;;;;;;;9.80;7.97;;;;;;;14.17;82.03;98506.97;6230049;28;20736;-68
2022/05/09 06:02:06;;;;;;;10.23;9.07;;;;;;;14.06;82.04;98512.28;6232590;28;20232;-68
2022/05/09 06:05:10;;;;;;;8.50;7.63;;;;;;;13.96;82.34;98518.34;6254566;28;20258;-68
2022/05/09 06:08:13;;;;;;;8.50;7.70;;;;;;;13.99;81.69;98515.44;6253767;28;20231;-69
2022/05/09 06:11:15;;;;;;;10.20;8.80;;;;;;;13.98;82.12;98526.16;6254259;28;20226;-68
2022/05/09 06:14:16;;;;;;;8.57;7.67;;;;;;;13.98;82.15;98524.34;6253690;28;20227;-68
2022/05/09 06:17:18;;;;;;;10.17;7.60;;;;;;;14.13;81.88;98526.75;6252997;28;20577;-68
2022/05/09 06:20:21;;;;;;;9.40;8.30;;;;;;;14.34;81.22;98525.00;6253747;28;20231;-68
2022/05/09 06:23:23;;;;;;;16.07;8.40;;;;;;;14.61;79.96;98535.19;6253970;28;20238;-68
2022/05/09 06:26:25;;;;;;;7.83;6.67;;;;;;;14.68;79.15;98539.84;6236411;28;20322;-68
2022/05/09 06:29:27;;;;;;;7.43;6.67;;;;;;;14.76;78.93;98536.56;6254158;28;20438;-68
2022/05/09 06:32:50;;;;;;;8.23;7.40;;;;;;;14.77;78.79;98532.94;6253836;28;20231;-68
2022/05/09 06:35:53;;;;;;;6.90;6.30;;;;;;;14.77;78.60;98546.25;6245894;28;20231;-68
2022/05/09 06:38:57;;;;;;;8.00;6.80;;;;;;;14.74;78.25;98543.81;6252726;28;20365;-68
2022/05/09 06:41:59;;;;;;;9.23;6.90;;;;;;;14.70;78.50;98545.88;6253389;28;20235;-68
2022/05/09 06:45:06;;;;;;;7.87;6.27;;;;;;;14.79;78.25;98544.28;6234644;28;20234;-68
2022/05/09 06:48:08;;;;;;;9.67;7.40;;;;;;;15.18;77.00;98545.38;6252465;28;20215;-68
2022/05/09 06:51:11;;;;;;;7.37;6.67;;;;;;;15.68;74.60;98542.84;6235504;28;20667;-68
2022/05/09 06:54:14;;;;;;;7.57;6.73;;;;;;;16.13;73.08;98537.97;6253039;28;20246;-68
2022/05/09 06:57:16;;;;;;;7.63;6.93;;;;;;;16.53;71.02;98544.06;6253399;28;20211;-68
2022/05/09 07:00:23;;;;;;;8.03;7.23;;;;;;;16.64;69.17;98539.59;6253304;28;20585;-68
2022/05/09 07:03:25;;;;;;;7.60;5.80;;;;;;;16.70;69.73;98541.69;6252848;28;20656;-68
2022/05/09 07:06:27;;;;;;;7.57;6.20;;;;;;;16.89;68.58;98537.19;6253814;28;20249;-68
2022/05/09 07:09:29;;;;;;;7.27;5.73;;;;;;;17.27;67.23;98538.97;6253173;28;20215;-68
2022/05/09 07:12:31;;;;;;;5.97;5.10;;;;;;;17.73;66.14;98539.13;6251326;28;20230;-68
2022/05/09 07:15:35;;;;;;;7.83;5.93;;;;;;;18.01;63.98;98536.31;6252944;28;20280;-69
2022/05/09 07:18:38;;;;;;;5.73;5.13;;;;;;;18.52;62.91;98542.91;6251816;28;20337;-68
2022/05/09 07:21:41;;;;;;;7.37;5.20;;;;;;;18.86;62.14;98543.09;6254552;28;20219;-68
2022/05/09 07:24:43;;;;;;;11.33;7.73;;;;;;;19.03;59.99;98542.22;6258565;28;20616;-69
2022/05/09 07:27:45;;;;;;;8.10;7.30;;;;;;;19.22;59.41;98537.66;6256374;28;20224;-68
2022/05/09 07:30:49;;;;;;;6.63;6.07;;;;;;;19.53;58.73;98534.41;6258132;28;20233;-68
2022/05/09 07:33:51;;;;;;;6.70;5.80;;;;;;;19.90;57.99;98544.78;6260546;28;20223;-68
2022/05/09 07:36:53;;;;;;;8.87;5.87;;;;;;;20.32;56.44;98538.56;6261984;28;20238;-68
2022/05/09 07:39:55;;;;;;;6.23;5.40;;;;;;;20.59;56.36;98535.63;6260778;28;20318;-68
2022/05/09 07:42:58;;;;;;;13.00;6.07;;;;;;;20.66;54.14;98533.16;6241777;28;20698;-68
2022/05/09 07:46:00;;;;;;;6.33;5.50;;;;;;;20.70;54.71;98534.47;6248021;28;20598;-68
2022/05/09 07:49:05;;;;;;;5.33;4.50;;;;;;;21.28;54.25;98536.19;6256544;28;20710;-68
2022/05/09 07:52:08;;;;;;;6.60;5.93;;;;;;;21.28;51.58;98528.97;6256808;28;20326;-68
2022/05/09 07:55:12;;;;;;;5.53;4.50;;;;;;;21.50;52.63;98526.59;6257286;28;20804;-68
2022/05/09 07:58:14;;;;;;;7.70;5.80;;;;;;;21.48;51.89;98529.44;6258562;28;20231;-68
2022/05/09 08:01:16;;;;;;;8.43;5.27;;;;;;;21.58;52.23;98529.25;6240178;28;20242;-68
2022/05/09 08:04:18;;;;;;;8.30;7.17;;;;;;;21.17;50.39;98533.81;6233629;28;20246;-69
2022/05/09 08:07:20;;;;;;;7.60;5.97;;;;;;;21.10;51.04;98533.66;6256774;28;20227;-69
2022/05/09 08:10:24;;;;;;;6.73;6.10;;;;;;;21.26;51.17;98530.97;6257502;28;20230;-70
2022/05/09 08:13:30;;;;;;;8.73;4.97;;;;;;;21.81;50.99;98530.19;6257562;28;20327;-69
2022/05/09 08:16:33;;;;;;;6.53;5.40;;;;;;;21.70;49.71;98535.94;6256221;28;20227;-69
2022/05/09 08:19:39;;;;;;;8.37;6.00;;;;;;;21.61;48.25;98524.38;6256807;28;20590;-69
2022/05/09 08:22:41;;;;;;;6.77;5.20;;;;;;;21.95;49.00;98534.84;6257837;28;20280;-69
2022/05/09 08:25:46;;;;;;;7.97;6.13;;;;;;;22.12;47.61;98524.88;6257367;28;20238;-69
2022/05/09 08:28:56;;;;;;;10.57;5.17;;;;;;;22.66;48.48;98533.00;6257129;28;20224;-69
2022/05/09 08:31:58;;;;;;;9.23;5.27;;;;;;;22.70;48.29;98535.13;6255106;28;20231;-69
2022/05/09 08:35:00;;;;;;;7.17;5.60;;;;;;;22.50;47.01;98541.16;6239003;28;20317;-68
2022/05/09 08:38:03;;;;;;;6.33;5.73;;;;;;;22.48;47.33;98541.31;6255987;28;20223;-68
2022/05/09 08:41:07;;;;;;;6.90;6.20;;;;;;;22.61;46.57;98532.66;6256250;28;20373;-68
2022/05/09 08:44:56;;;;;;;12.43;6.30;;;;;;;22.65;45.60;98539.38;6256927;28;20234;-69
2022/05/09 08:48:14;;;;;;;8.53;6.40;;;;;;;22.80;46.28;98532.22;6237784;28;20325;-68
2022/05/09 08:51:40;;;;;;;5.47;4.97;;;;;;;23.41;46.70;98524.97;6254796;28;20272;-68
2022/05/09 08:54:43;;;;;;;6.20;5.60;;;;;;;22.85;47.49;98539.78;6256300;28;20706;-69
2022/05/09 08:57:51;;;;;;;7.17;5.33;;;;;;;22.88;48.10;98526.78;6256211;28;20389;-69
2022/05/09 09:00:54;;;;;;;6.07;4.40;;;;;;;23.33;47.89;98531.28;6257304;28;20699;-69
2022/05/09 09:04:03;;;;;;;6.53;5.50;;;;;;;23.87;46.58;98545.38;6255473;28;20231;-69
2022/05/09 09:07:44;;;;;;;6.77;4.60;;;;;;;23.87;45.75;98536.44;6255622;28;20576;-68
2022/05/09 09:11:07;;;;;;;6.40;5.60;;;;;;;24.01;45.45;98537.47;6255868;28;20769;-68
2022/05/09 09:14:28;;;;;;;5.83;5.13;;;;;;;24.23;44.20;98532.00;6255317;28;20228;-69
2022/05/09 09:17:45;;;;;;;6.70;6.10;;;;;;;24.46;43.43;98530.97;6255287;28;20238;-69
2022/05/09 09:20:59;;;;;;;7.30;4.90;;;;;;;24.15;45.25;98528.53;6255502;28;20231;-69
2022/05/09 09:24:30;;;;;;;5.70;5.20;;;;;;;23.89;45.21;98537.09;6255225;28;20605;-68
2022/05/09 09:27:32;;;;;;;6.60;5.00;;;;;;;24.05;44.30;98539.63;6237858;28;20327;-69
2022/05/09 09:30:36;;;;;;;5.90;4.83;;;;;;;24.09;44.27;98542.75;6254748;28;20698;-68
2022/05/09 09:33:47;;;;;;;5.83;5.07;;;;;;;24.20;43.48;98528.78;6255471;28;20230;-68
2022/05/09 09:36:59;;;;;;;7.60;5.43;;;;;;;24.32;43.52;98537.28;6255321;28;20269;-68
2022/05/09 09:40:04;;;;;;;6.10;5.57;;;;;;;23.91;43.60;98535.91;6254999;28;20240;-69
2022/05/09 09:43:06;;;;;;;5.40;4.83;;;;;;;24.18;43.98;98538.94;6242535;28;20325;-69
2022/05/09 09:46:09;;;;;;;5.37;4.73;;;;;;;24.84;43.78;98527.06;6256055;28;20227;-68
2022/05/09 09:49:17;;;;;;;7.03;4.33;;;;;;;25.51;42.34;98523.06;6228231;28;20239;-69
2022/05/09 09:52:30;;;;;;;6.17;4.80;;;;;;;25.91;40.27;98525.00;6250531;28;20694;-68
2022/05/09 09:55:37;;;;;;;6.38;4.38;;;;;;;25.54;40.99;98528.91;6255221;28;20318;-68
2022/05/09 09:58:39;;;;;;;5.03;4.53;;;;;;;25.50;40.71;98522.22;6235892;28;20227;-68
2022/05/09 10:02:08;;;;;;;4.22;3.70;;;;;;;25.58;40.23;98518.50;6254261;28;20365;-68
2022/05/09 10:05:13;;;;;;;7.55;4.68;;;;;;;25.55;41.20;98510.81;6254781;28;20603;-68
2022/05/09 10:08:20;;;;;;;6.60;4.00;;;;;;;25.43;41.81;98515.94;6236527;28;20223;-68
2022/05/09 10:11:28;;;;;;;4.25;3.85;;;;;;;25.37;41.67;98511.31;6254559;28;20369;-68
2022/05/09 10:14:33;;;;;;;4.80;4.20;;;;;;;25.29;41.28;98519.56;6253803;28;20297;-68
2022/05/09 10:17:35;;;;;;;4.80;3.50;;;;;;;25.66;41.34;98516.53;6253464;28;20231;-69
2022/05/09 10:20:41;;;;;;;5.97;4.47;;;;;;;25.34;39.69;98512.56;6253151;28;20223;-68
2022/05/09 10:27:28;;;;;;;4.78;3.95;;;;;;;26.23;39.30;98514.53;6248291;28;20243;-69
2022/05/09 10:30:35;;;;;;;6.03;4.28;;;;;;;26.30;37.48;98512.72;6258489;28;20695;-68
2022/05/09 10:33:55;;;;;;;4.22;3.83;;;;;;;26.66;37.62;98505.09;6253721;28;20219;-69
2022/05/09 10:37:18;;;;;;;5.63;4.55;;;;;;;25.87;37.85;98503.94;6253348;28;20257;-69
2022/05/09 10:40:27;;;;;;;6.07;3.88;;;;;;;25.45;39.99;98496.81;6253609;28;20762;-69
2022/05/09 10:43:51;;;;;;;5.43;4.32;;;;;;;24.67;38.78;98504.00;6253827;28;20575;-69
2022/05/09 10:46:59;;;;;;;4.40;4.00;;;;;;;24.35;40.37;98491.03;6253466;28;20711;-69
2022/05/09 10:50:12;;;;;;;5.68;4.20;;;;;;;25.65;35.72;98490.50;6227857;28;20685;-69
2022/05/09 10:53:29;;;;;;;4.10;2.67;;;;;;;26.17;39.71;98480.16;6240405;28;20223;-69
2022/05/09 10:56:33;;;;;;;4.70;4.07;;;;;;;26.50;37.27;98483.81;6253240;28;20706;-69
2022/05/09 10:59:41;;;;;;;3.80;3.50;;;;;;;26.49;37.21;98481.31;6252662;28;20234;-69
2022/05/09 11:02:54;;;;;;;4.97;4.28;;;;;;;26.18;38.73;98473.69;6212684;28;20741;-69
2022/05/09 11:06:13;;;;;;;4.97;3.50;;;;;;;25.06;41.29;98473.84;6252224;28;20239;-69
2022/05/09 11:09:55;;;;;;;6.60;4.13;;;;;;;24.37;40.92;98475.47;6252670;28;20306;-70
2022/05/09 11:13:08;;;;;;;4.13;3.70;;;;;;;24.00;41.24;98471.06;6252896;28;20255;-69
2022/05/09 11:16:42;;;;;;;4.05;3.50;;;;;;;24.24;42.08;98476.16;6252252;28;20238;-69
2022/05/09 11:20:24;;;;;;;3.25;2.90;;;;;;;24.30;43.01;98463.75;6216085;28;20725;-68
2022/05/09 11:23:32;;;;;;;4.10;2.72;;;;;;;24.22;44.00;98470.13;6252393;28;20720;-68
2022/05/09 11:27:07;;;;;;;4.00;2.70;;;;;;;24.33;45.10;98460.69;6253101;28;20229;-69
2022/05/09 11:30:48;;;;;;;4.85;3.30;;;;;;;25.89;41.68;98450.50;6252621;28;20242;-68
2022/05/09 11:34:26;;;;;;;4.20;3.20;;;;;;;27.07;38.69;98437.22;6252544;28;20698;-68
2022/05/09 11:37:49;;;;;;;3.72;3.20;;;;;;;27.96;35.83;98436.59;6253221;28;20235;-68
2022/05/09 11:41:12;;;;;;;5.65;3.35;;;;;;;28.19;33.99;98428.78;6252847;28;20313;-68
2022/05/09 11:44:14;;;;;;;3.58;3.20;;;;;;;28.53;33.57;98424.84;6251444;28;20302;-69
2022/05/09 11:47:34;;;;;;;5.28;3.75;;;;;;;27.91;33.53;98429.13;6253416;28;20218;-68
2022/05/09 11:50:52;;;;;;;4.70;3.97;;;;;;;25.62;36.10;98428.75;6252109;28;20241;-68
2022/05/09 11:53:59;;;;;;;5.22;4.03;;;;;;;24.63;36.88;98422.59;6252752;28;20235;-68
2022/05/09 11:57:07;;;;;;;4.72;3.60;;;;;;;24.06;39.17;98425.28;6252120;28;20238;-68
2022/05/09 12:00:29;;;;;;;3.72;2.90;;;;;;;24.01;43.99;98424.19;6253364;28;20285;-68
2022/05/09 12:03:40;;;;;;;3.95;2.92;;;;;;;24.70;42.07;98416.41;6252505;28;20719;-68
2022/05/09 12:06:42;;;;;;;4.75;3.47;;;;;;;26.08;39.24;98409.16;6252277;28;20717;-68
2022/05/09 12:09:53;;;;;;;4.43;2.83;;;;;;;27.07;39.46;98398.44;6257062;28;20238;-68
2022/05/09 12:13:07;;;;;;;4.20;3.80;;;;;;;28.19;31.91;98400.81;6255557;28;20284;-68
2022/05/09 12:16:30;;;;;;;5.35;4.05;;;;;;;27.06;33.13;98397.59;6257516;28;20393;-68
2022/05/09 12:19:33;;;;;;;6.40;3.88;;;;;;;25.97;34.95;98404.31;6252193;28;20228;-68
2022/05/09 12:22:47;;;;;;;3.92;3.50;;;;;;;25.53;37.48;98405.59;6241902;28;20250;-68
2022/05/09 12:26:05;;;;;;;3.72;3.00;;;;;;;24.89;37.35;98403.06;6238380;28;20223;-68
2022/05/09 12:29:20;;;;;;;5.00;3.40;;;;;;;25.49;37.18;98398.91;6256480;28;20337;-68
2022/05/09 12:32:22;;;;;;;4.93;3.47;;;;;;;26.83;33.56;98394.50;6257732;28;20635;-68
2022/05/09 12:35:24;;;;;;;4.32;3.90;;;;;;;26.75;33.05;98395.50;6255556;28;20251;-68
2022/05/09 12:38:33;;;;;;;3.83;3.42;;;;;;;26.72;33.68;98387.81;6238624;28;20227;-68
2022/05/09 12:42:00;;;;;;;4.80;3.65;;;;;;;27.78;36.32;98393.91;6256642;28;20321;-68
2022/05/09 12:45:04;;;;;;;4.25;3.22;;;;;;;27.88;31.72;98371.72;6246737;28;20314;-68
2022/05/09 12:48:10;;;;;;;5.90;3.70;;;;;;;27.24;33.49;98375.28;6255456;28;20211;-68
2022/05/09 12:51:13;;;;;;;3.38;3.03;;;;;;;26.96;33.47;98383.66;6256273;28;20337;-68
2022/05/09 12:54:19;;;;;;;4.28;3.45;;;;;;;27.18;33.48;98386.97;6256430;28;20230;-68
2022/05/09 12:57:33;;;;;;;6.53;3.10;;;;;;;26.70;33.92;98381.78;6255843;28;20733;-68
2022/05/09 13:00:37;;;;;;;3.15;2.85;;;;;;;25.71;36.46;98384.28;6255807;28;20278;-68
2022/05/09 13:04:02;;;;;;;4.25;2.90;;;;;;;25.65;38.98;98381.56;6254038;28;20231;-68
2022/05/09 13:07:07;;;;;;;3.50;3.08;;;;;;;25.32;38.29;98375.94;6256247;28;20226;-68
2022/05/09 13:10:13;;;;;;;3.33;2.63;;;;;;;24.88;41.29;98374.38;6256380;28;20250;-68
2022/05/09 13:13:32;;;;;;;4.40;3.30;;;;;;;24.53;40.15;98373.50;6255795;28;20602;-68
2022/05/09 13:16:38;;;;;;;3.75;3.03;;;;;;;24.42;41.22;98368.63;6255938;28;20316;-68
2022/05/09 13:19:51;;;;;;;2.67;2.47;;;;;;;24.97;42.67;98365.13;6254858;28;20590;-68
2022/05/09 13:23:00;;;;;;;4.30;3.70;;;;;;;25.89;37.51;98364.78;6256533;28;20620;-68
2022/05/09 13:26:06;;;;;;;5.75;3.47;;;;;;;25.79;36.29;98363.50;6256451;28;20884;-68
2022/05/09 13:29:09;;;;;;;3.83;3.42;;;;;;;26.40;34.70;98350.75;6259011;28;20235;-68
2022/05/09 13:32:23;;;;;;;3.40;3.10;;;;;;;27.05;32.35;98339.03;6256072;28;20238;-68
2022/05/09 13:35:30;;;;;;;3.95;2.97;;;;;;;28.19;32.35;98333.78;6255146;28;20529;-68
2022/05/09 13:38:34;;;;;;;3.30;2.97;;;;;;;28.81;30.52;98326.63;6254713;28;20766;-68
2022/05/09 13:41:37;;;;;;;4.68;2.67;;;;;;;29.73;31.24;98327.47;6256272;28;20596;-68
2022/05/09 13:44:42;;;;;;;4.53;3.00;;;;;;;30.25;28.38;98325.88;6255102;28;20226;-68
2022/05/09 13:47:54;;;;;;;3.60;2.72;;;;;;;31.01;26.93;98308.69;6255014;28;20777;-69
2022/05/09 13:50:58;;;;;;;3.80;2.65;;;;;;;31.74;27.39;98315.47;6255989;28;20227;-68
2022/05/09 13:54:03;;;;;;;2.78;2.45;;;;;;;31.68;26.12;98310.97;6229355;28;20235;-68
2022/05/09 13:57:17;;;;;;;2.92;2.47;;;;;;;31.95;23.72;98314.75;6250201;28;20617;-68
2022/05/09 14:00:23;;;;;;;4.07;3.05;;;;;;;31.83;24.28;98312.09;6254652;28;20213;-68
2022/05/09 14:03:35;;;;;;;4.47;3.20;;;;;;;32.26;24.01;98302.50;6249697;28;20310;-68
2022/05/09 14:06:38;;;;;;;3.80;3.13;;;;;;;33.50;22.70;98311.25;6254038;28;20433;-68
2022/05/09 14:09:41;;;;;;;5.55;2.90;;;;;;;34.63;21.23;98305.84;6254768;28;20230;-69
2022/05/09 14:12:42;;;;;;;3.08;2.78;;;;;;;35.49;20.40;98295.41;6254273;28;20309;-68
2022/05/09 14:15:55;;;;;;;4.00;2.50;;;;;;;36.28;19.61;98292.34;6254552;28;20222;-68
2022/05/09 14:19:06;;;;;;;2.95;2.53;;;;;;;37.00;19.00;98293.97;6253888;28;20293;-68
2022/05/09 14:22:13;;;;;;;3.08;2.88;;;;;;;38.27;17.82;98297.00;6255041;28;20246;-68
2022/05/09 14:32:09;;;;;;;2.97;2.72;;;;;;;36.19;18.37;98280.22;6253899;28;20236;-69
2022/05/09 14:35:13;;;;;;;3.20;2.90;;;;;;;35.65;18.76;98279.81;6255074;28;20324;-68
2022/05/09 14:38:36;;;;;;;3.53;2.88;;;;;;;33.18;22.07;98277.41;6254005;28;20226;-68
2022/05/09 14:41:41;;;;;;;3.58;2.67;;;;;;;35.16;20.44;98271.91;6252580;28;20223;-68
2022/05/09 14:45:03;;;;;;;3.80;3.22;;;;;;;34.62;20.49;98282.25;6254071;28;20233;-69
2022/05/09 14:48:12;;;;;;;3.40;3.10;;;;;;;35.99;19.54;98266.47;6244951;28;20254;-68
2022/05/09 14:51:17;;;;;;;3.05;2.58;;;;;;;33.48;21.05;98277.81;6254127;28;20227;-68
2022/05/09 14:54:19;;;;;;;4.20;2.72;;;;;;;34.05;20.94;98277.34;6253383;28;20296;-68
2022/05/09 14:57:27;;;;;;;5.60;2.75;;;;;;;31.09;24.61;98282.97;6253724;28;20284;-68
2022/05/09 15:00:35;;;;;;;7.55;2.90;;;;;;;28.31;29.80;98281.50;6234807;28;20300;-68
2022/05/09 15:03:48;;;;;;;3.28;2.47;;;;;;;27.19;34.74;98277.50;6237959;28;20228;-68
2022/05/09 15:06:50;;;;;;;3.75;2.50;;;;;;;26.42;37.36;98276.41;6228549;28;20289;-68
2022/05/09 15:09:52;;;;;;;3.88;2.35;;;;;;;25.93;39.38;98281.34;6228294;28;20226;-68
2022/05/09 15:12:55;;;;;;;2.58;2.38;;;;;;;25.73;40.56;98282.16;6221835;28;20223;-69
2022/05/09 15:16:05;;;;;;;4.25;2.78;;;;;;;25.31;41.62;98277.00;6229305;28;20285;-68
2022/05/09 15:19:07;;;;;;;3.00;2.40;;;;;;;25.10;42.61;98285.22;6228332;28;20227;-68
2022/05/09 15:22:13;;;;;;;2.70;2.50;;;;;;;25.26;41.65;98279.44;6228306;28;20239;-68
2022/05/09 15:25:15;;;;;;;3.88;2.60;;;;;;;25.20;41.16;98282.97;6228330;28;20232;-68
2022/05/09 15:28:18;;;;;;;3.58;2.58;;;;;;;24.91;42.63;98284.03;6210298;28;20261;-68
2022/05/09 15:31:21;;;;;;;3.38;2.38;;;;;;;24.32;42.47;98284.47;6228877;28;20864;-68
2022/05/09 15:34:23;;;;;;;2.55;2.35;;;;;;;23.96;42.62;98281.84;6228560;28;20239;-68
2022/05/09 15:37:25;;;;;;;2.58;2.28;;;;;;;23.83;43.77;98284.44;6210716;28;20597;-68
2022/05/09 15:40:29;;;;;;;4.78;2.50;;;;;;;23.66;45.19;98291.09;6227802;28;20235;-68
2022/05/09 15:43:38;;;;;;;2.20;2.10;;;;;;;23.48;46.38;98286.09;6231170;28;20232;-69
2022/05/09 15:46:41;;;;;;;3.55;2.45;;;;;;;23.15;48.26;98285.72;6233630;28;20220;-68
2022/05/09 15:49:45;;;;;;;3.05;2.65;;;;;;;22.97;48.69;98278.00;6233446;28;20238;-68
2022/05/09 15:52:47;;;;;;;5.70;2.30;;;;;;;22.72;49.20;98282.81;6231955;28;20334;-68
2022/05/09 15:55:54;;;;;;;4.13;2.83;;;;;;;22.69;49.49;98277.78;6232315;28;20291;-68